createdAt,value
2023-03-24T00:03:30.335Z,14.4
2023-03-24T00:08:36.656Z,14.4
2023-03-24T00:13:42.641Z,14.4
2023-03-24T00:18:48.857Z,14.4
2023-03-24T00:23:54.106Z,14.4
2023-03-24T00:29:00.311Z,14.4
2023-03-24T00:34:05.563Z,14.4
2023-03-24T00:39:11.780Z,14.4
2023-03-24T00:44:18.016Z,14.4
2023-03-24T00:49:24.208Z,14.5
2023-03-24T00:54:30.426Z,14.5
2023-03-24T00:59:36.643Z,14.5
2023-03-24T01:04:42.845Z,14.5
2023-03-24T01:09:49.067Z,14.6
2023-03-24T01:14:55.280Z,14.6
2023-03-24T01:20:01.487Z,14.6
2023-03-24T01:25:07.710Z,14.7
2023-03-24T01:30:13.921Z,14.7
2023-03-24T01:35:20.144Z,14.7
2023-03-24T01:40:26.358Z,14.8
2023-03-24T01:45:32.589Z,14.8
2023-03-24T01:50:38.771Z,14.8
2023-03-24T01:55:44.990Z,14.8
2023-03-24T02:00:51.230Z,14.8
2023-03-24T02:05:57.402Z,14.8
2023-03-24T02:11:03.628Z,14.7
2023-03-24T02:16:09.887Z,14.7
2023-03-24T02:21:15.074Z,14.7
2023-03-24T02:26:21.284Z,14.7
2023-03-24T02:31:26.544Z,14.7
2023-03-24T02:36:32.729Z,14.7
2023-03-24T02:41:38.948Z,14.7
2023-03-24T02:46:44.180Z,14.7
2023-03-24T02:51:50.391Z,14.7
2023-03-24T02:56:56.647Z,14.7
2023-03-24T03:02:02.842Z,14.7
2023-03-24T03:07:09.040Z,14.8
2023-03-24T03:12:15.247Z,14.8
2023-03-24T03:17:21.468Z,14.8
2023-03-24T03:22:27.681Z,14.8
2023-03-24T03:27:33.881Z,14.8
2023-03-24T03:32:40.127Z,14.8
2023-03-24T03:37:47.207Z,14.8
2023-03-24T03:42:52.534Z,14.9
2023-03-24T03:47:58.794Z,14.9
2023-03-24T03:53:04.951Z,14.8
2023-03-24T03:58:11.165Z,14.7
2023-03-24T04:03:17.507Z,14.6
2023-03-24T04:08:23.590Z,14.4
2023-03-24T04:13:29.806Z,14.3
2023-03-24T04:18:36.027Z,14.1
2023-03-24T04:23:42.233Z,13.9
2023-03-24T04:28:48.448Z,13.7
2023-03-24T04:33:53.684Z,13.6
2023-03-24T04:38:59.897Z,13.5
2023-03-24T04:44:05.139Z,13.4
2023-03-24T04:49:11.344Z,13.3
2023-03-24T04:54:17.546Z,13.3
2023-03-24T04:59:23.762Z,13.2
2023-03-24T05:04:29.963Z,13.2
2023-03-24T05:09:36.175Z,13.2
2023-03-24T05:14:42.376Z,13.2
2023-03-24T05:19:48.592Z,13.1
2023-03-24T05:24:54.816Z,13.0
2023-03-24T05:30:01.018Z,13.0
2023-03-24T05:35:07.230Z,12.9
2023-03-24T05:40:13.435Z,12.8
2023-03-24T05:45:19.632Z,12.7
2023-03-24T05:50:25.846Z,12.7
2023-03-24T05:55:32.056Z,12.6
2023-03-24T06:00:38.284Z,12.5
2023-03-24T06:05:44.658Z,12.5
2023-03-24T06:10:50.677Z,12.5
2023-03-24T06:15:56.962Z,12.5
2023-03-24T06:21:03.101Z,12.4
2023-03-24T06:26:09.312Z,12.4
2023-03-24T06:31:14.587Z,12.4
2023-03-24T06:36:20.771Z,12.5
2023-03-24T06:41:25.982Z,12.6
2023-03-24T06:46:32.249Z,12.7
2023-03-24T06:51:38.400Z,12.9
2023-03-24T06:56:44.678Z,13.1
2023-03-24T07:01:50.883Z,13.2
2023-03-24T07:07:12.536Z,13.2
2023-03-24T07:12:03.235Z,13.4
2023-03-24T07:17:09.468Z,13.5
2023-03-24T07:22:15.658Z,13.7
2023-03-24T07:27:21.873Z,13.9
2023-03-24T07:32:28.089Z,14.0
2023-03-24T07:37:34.300Z,14.1
2023-03-24T07:42:40.512Z,14.2
2023-03-24T07:47:46.781Z,14.3
2023-03-24T07:52:52.949Z,14.4
2023-03-24T07:57:59.156Z,14.6
2023-03-24T08:03:05.464Z,14.7
2023-03-24T08:08:11.585Z,14.8
2023-03-24T08:13:17.798Z,14.9
2023-03-24T08:18:24.021Z,14.9
2023-03-24T08:23:30.247Z,15.0
2023-03-24T08:28:35.463Z,15.0
2023-03-24T08:33:41.664Z,15.1
2023-03-24T08:38:46.899Z,15.2
2023-03-24T08:43:53.108Z,15.4
2023-03-24T08:48:59.315Z,15.5
2023-03-24T08:54:05.589Z,15.5
2023-03-24T08:59:11.745Z,15.5
2023-03-24T09:04:17.964Z,15.6
2023-03-24T09:09:24.145Z,15.7
2023-03-24T09:14:30.352Z,15.8
2023-03-24T09:19:36.557Z,15.9
2023-03-24T09:24:42.775Z,15.9
2023-03-24T09:29:48.984Z,15.9
2023-03-24T09:34:55.191Z,15.8
2023-03-24T09:40:01.394Z,15.7
2023-03-24T09:45:07.607Z,15.7
2023-03-24T09:50:13.822Z,15.6
2023-03-24T09:55:20.020Z,15.6
2023-03-24T10:00:26.251Z,15.7
2023-03-24T10:05:32.450Z,15.7
2023-03-24T10:10:38.654Z,15.7
2023-03-24T10:15:50.628Z,15.6
2023-03-24T10:20:51.077Z,15.4
2023-03-24T10:25:56.312Z,15.4
2023-03-24T10:31:02.529Z,15.4
2023-03-24T10:36:08.157Z,15.5
2023-03-24T10:41:13.962Z,15.6
2023-03-24T10:46:20.225Z,15.6
2023-03-24T10:51:26.385Z,15.7
2023-03-24T10:56:32.626Z,15.7
2023-03-24T11:01:38.836Z,15.8
2023-03-24T11:06:45.004Z,15.8
2023-03-24T11:11:51.216Z,15.8
2023-03-24T11:16:57.475Z,15.8
2023-03-24T11:22:03.641Z,15.9
2023-03-24T11:27:09.833Z,16.1
2023-03-24T11:32:16.051Z,16.2
2023-03-24T11:37:22.274Z,16.3
2023-03-24T11:42:28.457Z,16.4
2023-03-24T11:47:34.740Z,16.6
2023-03-24T11:52:40.882Z,16.7
2023-03-24T11:57:47.085Z,16.7
2023-03-24T12:02:53.423Z,16.7
2023-03-24T12:07:59.510Z,16.8
2023-03-24T12:13:05.736Z,16.8
2023-03-24T12:18:11.922Z,16.8
2023-03-24T12:23:17.175Z,16.7
2023-03-24T12:28:22.384Z,16.5
2023-03-24T12:33:27.895Z,16.2
2023-03-24T12:38:33.828Z,15.9
2023-03-24T12:43:40.076Z,15.6
2023-03-24T12:48:46.247Z,15.3
2023-03-24T12:53:52.465Z,15.1
2023-03-24T12:58:58.679Z,14.9
2023-03-24T13:04:04.881Z,14.7
2023-03-24T13:09:11.111Z,14.6
2023-03-24T13:14:17.309Z,14.6
2023-03-24T13:19:23.573Z,14.6
2023-03-24T13:24:29.780Z,14.7
2023-03-24T13:29:47.902Z,14.9
2023-03-24T13:34:42.170Z,15.1
2023-03-24T13:39:48.681Z,15.4
2023-03-24T13:44:54.573Z,15.6
2023-03-24T13:50:00.781Z,15.8
2023-03-24T13:55:06.986Z,16.1
2023-03-24T14:00:13.230Z,16.2
2023-03-24T14:05:19.408Z,16.3
2023-03-24T14:10:25.933Z,16.3
2023-03-24T14:15:31.934Z,16.4
2023-03-24T14:20:37.058Z,16.5
2023-03-24T14:25:44.387Z,16.6
2023-03-24T14:30:49.508Z,16.5
2023-03-24T14:35:54.747Z,16.5
2023-03-24T14:41:00.913Z,16.5
2023-03-24T14:46:07.286Z,16.4
2023-03-24T14:51:13.653Z,16.2
2023-03-24T14:56:19.541Z,15.6
2023-03-24T15:01:25.775Z,15.2
2023-03-24T15:06:31.966Z,14.9
2023-03-24T15:11:38.208Z,14.7
2023-03-24T15:16:44.402Z,14.6
2023-03-24T15:21:50.620Z,14.5
2023-03-24T15:26:56.833Z,14.5
2023-03-24T15:32:03.106Z,14.6
2023-03-24T15:37:09.260Z,14.6
2023-03-24T15:42:15.475Z,14.7
2023-03-24T15:47:21.693Z,14.8
2023-03-24T15:52:27.908Z,14.8
2023-03-24T15:57:34.126Z,15.0
2023-03-24T16:02:40.357Z,15.1
2023-03-24T16:07:46.533Z,15.3
2023-03-24T16:12:52.747Z,15.5
2023-03-24T16:17:58.969Z,15.5
2023-03-24T16:23:04.182Z,15.6
2023-03-24T16:28:10.392Z,15.6
2023-03-24T16:33:16.613Z,15.6
2023-03-24T16:38:22.821Z,15.6
2023-03-24T16:43:29.020Z,15.6
2023-03-24T16:48:35.225Z,15.6
2023-03-24T16:53:41.444Z,15.5
2023-03-24T16:58:47.662Z,15.5
2023-03-24T17:03:54.000Z,15.5
2023-03-24T17:09:00.090Z,15.5
2023-03-24T17:14:06.274Z,15.4
2023-03-24T17:19:12.503Z,15.4
2023-03-24T17:24:18.709Z,15.3
2023-03-24T17:29:24.900Z,15.2
2023-03-24T17:34:31.120Z,15.1
2023-03-24T17:39:37.327Z,15.0
2023-03-24T17:44:43.541Z,14.9
2023-03-24T17:49:49.750Z,14.9
2023-03-24T17:54:55.961Z,14.8
2023-03-24T18:00:02.248Z,14.8
2023-03-24T18:05:08.391Z,14.7
2023-03-24T18:10:13.625Z,14.7
2023-03-24T18:15:19.836Z,14.6
2023-03-24T18:20:26.172Z,14.6
2023-03-24T18:25:32.281Z,14.6
2023-03-24T18:30:38.496Z,14.5
2023-03-24T18:35:44.772Z,14.5
2023-03-24T18:40:51.058Z,14.4
2023-03-24T18:45:57.137Z,14.3
2023-03-24T18:51:03.327Z,14.3
2023-03-24T18:56:09.548Z,14.2
2023-03-24T19:01:15.822Z,14.1
2023-03-24T19:06:21.979Z,14.0
2023-03-24T19:11:28.185Z,13.9
2023-03-24T19:16:34.448Z,13.8
2023-03-24T19:21:40.678Z,13.6
2023-03-24T19:26:46.825Z,13.5
2023-03-24T19:31:53.039Z,13.4
2023-03-24T19:36:59.249Z,13.3
2023-03-24T19:42:05.463Z,13.3
2023-03-24T19:47:11.660Z,13.2
2023-03-24T19:52:17.887Z,13.2
2023-03-24T19:57:23.109Z,13.1
2023-03-24T20:02:29.374Z,13.0
2023-03-24T20:07:34.547Z,13.0
2023-03-24T20:12:40.764Z,12.9
2023-03-24T20:17:47.001Z,12.8
2023-03-24T20:22:52.200Z,12.8
2023-03-24T20:27:58.415Z,12.7
2023-03-24T20:33:04.640Z,12.6
2023-03-24T20:38:10.824Z,12.6
2023-03-24T20:43:17.066Z,12.5
2023-03-24T20:48:23.237Z,12.4
2023-03-24T20:53:29.473Z,12.4
2023-03-24T20:58:35.812Z,12.4
2023-03-24T21:03:41.876Z,12.4
2023-03-24T21:08:48.071Z,12.3
2023-03-24T21:13:54.281Z,12.3
2023-03-24T21:19:00.487Z,12.3
2023-03-24T21:24:06.695Z,12.3
2023-03-24T21:29:12.910Z,12.2
2023-03-24T21:34:19.109Z,12.2
2023-03-24T21:39:25.344Z,12.2
2023-03-24T21:44:31.546Z,12.2
2023-03-24T21:49:37.894Z,12.2
2023-03-24T21:54:43.947Z,12.2
2023-03-24T21:59:50.158Z,12.2
2023-03-24T22:04:56.365Z,12.2
2023-03-24T22:10:01.604Z,12.2
2023-03-24T22:15:07.809Z,12.2
2023-03-24T22:20:14.012Z,12.2
2023-03-24T22:25:19.244Z,12.2
2023-03-24T22:30:25.455Z,12.1
2023-03-24T22:35:31.693Z,12.1
2023-03-24T22:40:37.873Z,12.0
2023-03-24T22:45:44.079Z,12.0
2023-03-24T22:50:50.298Z,12.0
2023-03-24T22:55:56.495Z,12.0
2023-03-24T23:01:02.712Z,11.9
2023-03-24T23:06:08.918Z,11.9
2023-03-24T23:11:15.114Z,11.9
2023-03-24T23:16:21.395Z,11.8
2023-03-24T23:21:27.891Z,11.8
2023-03-24T23:26:33.740Z,11.8
2023-03-24T23:31:39.988Z,11.8
2023-03-24T23:36:46.164Z,11.8
2023-03-24T23:41:52.366Z,11.8
2023-03-24T23:46:58.584Z,11.8
2023-03-24T23:52:04.831Z,11.8
2023-03-24T23:57:11.016Z,11.8
